Time;durP1;ratioP1;P1;durP2;ratioP2;P2;SDS_P1;SDS_P2;PMS_P1;PMS_P2;Temp;Humidity;BMP_temperature;BMP_pressure;BME280_temperature;BME280_humidity;BME280_pressure;Samples;Min_cycle;Max_cycle;Signal;HPM_P1;HPM_P2
2022/08/31 00:04:56;;;;;;;7.03;5.43;;;20.80;99.90;;;;;;5024867;28;20487;-65
2022/08/31 00:07:23;;;;;;;5.50;5.00;;;20.80;99.90;;;;;;5028141;28;20452;-65
2022/08/31 00:09:50;;;;;;;6.00;5.50;;;20.80;99.90;;;;;;5028363;28;20444;-65
2022/08/31 00:12:17;;;;;;;6.13;5.57;;;20.80;99.90;;;;;;5026080;28;20451;-69
2022/08/31 00:14:44;;;;;;;6.00;5.37;;;20.70;99.90;;;;;;5027336;28;20441;-66
2022/08/31 00:17:11;;;;;;;7.20;5.70;;;20.70;99.90;;;;;;5026254;28;20480;-66
2022/08/31 00:19:38;;;;;;;5.60;5.10;;;20.70;99.90;;;;;;5023822;28;20449;-66
2022/08/31 00:22:06;;;;;;;6.33;5.73;;;20.70;99.90;;;;;;5028505;28;20445;-66
2022/08/31 00:24:33;;;;;;;6.50;5.30;;;20.70;99.90;;;;;;5028979;28;20456;-69
2022/08/31 00:27:00;;;;;;;6.07;5.57;;;20.60;99.90;;;;;;5013834;28;20478;-65
2022/08/31 00:29:27;;;;;;;6.10;5.50;;;20.60;99.90;;;;;;5010197;28;20458;-68
2022/08/31 00:31:54;;;;;;;6.07;5.10;;;20.60;99.90;;;;;;5010033;28;20453;-66
2022/08/31 00:34:21;;;;;;;6.27;5.67;;;20.60;99.90;;;;;;5010206;28;21008;-68
2022/08/31 00:36:48;;;;;;;6.07;5.47;;;20.60;99.90;;;;;;5010329;28;20485;-67
2022/08/31 00:39:16;;;;;;;6.67;5.40;;;20.60;99.90;;;;;;5010180;28;20450;-67
2022/08/31 00:41:43;;;;;;;5.40;4.90;;;20.60;99.90;;;;;;5009793;28;20947;-65
2022/08/31 00:44:11;;;;;;;6.13;5.50;;;20.70;99.90;;;;;;5009960;28;20473;-67
2022/08/31 00:46:41;;;;;;;6.43;5.17;;;20.60;99.90;;;;;;5014376;28;20556;-67
2022/08/31 00:49:10;;;;;;;15.10;6.03;;;20.50;99.90;;;;;;5029830;28;20441;-67
2022/08/31 00:51:41;;;;;;;17.17;8.60;;;20.20;99.90;;;;;;5029872;28;20459;-66
2022/08/31 00:54:09;;;;;;;9.13;8.20;;;19.70;99.90;;;;;;5029451;28;21012;-66
2022/08/31 00:56:39;;;;;;;11.60;8.20;;;19.10;99.90;;;;;;5029902;28;20486;-67
2022/08/31 00:59:06;;;;;;;12.23;8.20;;;18.50;99.90;;;;;;5029595;28;20460;-67
2022/08/31 01:01:33;;;;;;;10.07;8.53;;;18.10;99.90;;;;;;5029885;28;20444;-67
2022/08/31 01:04:00;;;;;;;13.07;9.70;;;17.80;99.90;;;;;;5029285;28;20531;-66
2022/08/31 01:06:27;;;;;;;14.60;10.67;;;17.70;99.90;;;;;;5029642;28;20452;-66
2022/08/31 01:08:57;;;;;;;11.83;9.93;;;17.60;99.90;;;;;;5029505;28;20445;-66
2022/08/31 01:11:25;;;;;;;14.37;10.47;;;17.50;99.90;;;;;;5029864;28;20484;-67
2022/08/31 01:13:53;;;;;;;74.10;69.30;;;17.50;99.90;;;;;;5029185;28;20990;-67
2022/08/31 01:16:26;;;;;;;14.10;11.33;;;17.60;99.90;;;;;;5029623;28;20488;-67
2022/08/31 01:18:53;;;;;;;12.33;11.13;;;17.70;99.90;;;;;;5030115;28;20449;-64
2022/08/31 01:21:28;;;;;;;13.83;12.43;;;17.80;99.90;;;;;;5029443;28;20449;-67
2022/08/31 01:23:59;;;;;;;12.27;11.03;;;17.80;99.90;;;;;;5028114;28;21004;-66
2022/08/31 01:26:29;;;;;;;13.90;10.97;;;17.80;99.90;;;;;;5029298;28;20455;-66
2022/08/31 01:29:00;;;;;;;14.73;12.40;;;17.80;99.90;;;;;;5029684;28;20453;-67
2022/08/31 01:31:30;;;;;;;13.27;12.00;;;17.80;99.90;;;;;;5029396;28;20453;-66
2022/08/31 01:33:57;;;;;;;11.80;10.70;;;17.80;99.90;;;;;;5029004;28;20476;-66
2022/08/31 01:36:25;;;;;;;12.57;11.27;;;17.80;99.90;;;;;;5029468;28;20477;-66
2022/08/31 01:38:52;;;;;;;16.10;12.20;;;17.90;99.90;;;;;;5029534;28;20806;-66
2022/08/31 01:41:21;;;;;;;12.23;10.93;;;17.90;99.90;;;;;;5029491;28;20471;-67
2022/08/31 01:43:48;;;;;;;12.23;10.80;;;17.90;99.90;;;;;;5032978;28;20475;-66
2022/08/31 01:46:15;;;;;;;12.07;11.00;;;17.90;99.90;;;;;;5033133;28;20895;-67
2022/08/31 01:48:44;;;;;;;13.17;11.97;;;17.90;99.90;;;;;;5033336;28;20444;-68
2022/08/31 01:51:13;;;;;;;15.00;11.83;;;17.90;99.90;;;;;;5033606;28;20455;-66
2022/08/31 01:53:42;;;;;;;12.77;11.47;;;17.90;99.90;;;;;;5033108;28;20476;-65
2022/08/31 01:56:11;;;;;;;12.43;11.17;;;17.80;99.90;;;;;;5031380;28;20445;-66
2022/08/31 01:58:40;;;;;;;10.73;9.80;;;17.80;99.90;;;;;;5033188;28;20464;-66
2022/08/31 02:01:07;;;;;;;12.40;11.20;;;17.80;99.90;;;;;;5032834;28;20463;-66
2022/08/31 02:03:34;;;;;;;12.10;10.90;;;17.80;99.90;;;;;;5031221;28;20468;-66
2022/08/31 02:06:07;;;;;;;12.63;11.43;;;17.80;99.90;;;;;;5032883;28;20989;-67
2022/08/31 02:08:34;;;;;;;12.57;11.37;;;17.80;99.90;;;;;;5032808;28;20818;-67
2022/08/31 02:11:01;;;;;;;16.07;12.60;;;17.90;99.90;;;;;;5032604;28;20485;-67
2022/08/31 02:13:28;;;;;;;13.37;12.00;;;17.80;99.90;;;;;;5032308;28;20491;-66
2022/08/31 02:15:56;;;;;;;13.33;11.97;;;17.80;99.90;;;;;;5032857;28;20455;-66
2022/08/31 02:18:23;;;;;;;12.67;11.43;;;17.80;99.90;;;;;;5032492;28;20497;-67
2022/08/31 02:20:50;;;;;;;12.80;11.37;;;17.80;99.90;;;;;;5032477;28;20981;-66
2022/08/31 02:23:17;;;;;;;14.20;12.70;;;17.80;99.90;;;;;;5032099;28;20468;-66
2022/08/31 02:25:44;;;;;;;17.40;12.60;;;17.80;99.90;;;;;;5032637;28;20453;-66
2022/08/31 02:28:12;;;;;;;14.07;12.27;;;17.80;99.90;;;;;;5031970;28;20449;-66
2022/08/31 02:30:40;;;;;;;12.23;11.13;;;17.80;99.90;;;;;;5030760;28;20951;-67
2022/08/31 02:33:09;;;;;;;13.23;11.23;;;17.80;99.90;;;;;;5031535;28;20472;-66
2022/08/31 02:35:37;;;;;;;12.80;11.30;;;17.80;99.90;;;;;;5029146;28;20459;-67
2022/08/31 02:38:04;;;;;;;11.87;10.70;;;17.80;99.90;;;;;;5031828;28;21007;-67
2022/08/31 02:40:31;;;;;;;14.40;11.47;;;17.80;99.90;;;;;;5032173;28;20453;-67
2022/08/31 02:42:58;;;;;;;13.03;11.83;;;17.70;99.90;;;;;;5032252;28;20818;-66
2022/08/31 02:45:25;;;;;;;12.90;11.50;;;17.70;99.90;;;;;;5032220;28;20788;-67
2022/08/31 02:47:51;;;;;;;11.97;10.63;;;17.70;99.90;;;;;;5032360;28;20448;-65
2022/08/31 02:50:20;;;;;;;11.47;10.47;;;17.70;99.90;;;;;;5031866;28;20453;-66
2022/08/31 02:52:47;;;;;;;11.63;10.43;;;17.70;99.90;;;;;;5031524;28;20469;-67
2022/08/31 02:55:14;;;;;;;14.30;12.57;;;17.70;99.90;;;;;;5032005;28;20556;-66
2022/08/31 02:57:41;;;;;;;12.00;10.90;;;17.60;99.90;;;;;;5028344;28;20480;-66
2022/08/31 03:00:10;;;;;;;12.50;11.30;;;17.60;99.90;;;;;;5031615;28;20440;-66
2022/08/31 03:02:37;;;;;;;11.40;10.40;;;17.60;99.90;;;;;;5031345;28;20546;-67
2022/08/31 03:05:06;;;;;;;11.70;10.63;;;17.60;99.90;;;;;;5031632;28;20955;-66
2022/08/31 03:07:35;;;;;;;12.43;10.97;;;17.60;99.90;;;;;;5031537;28;20485;-67
2022/08/31 03:10:02;;;;;;;12.97;11.77;;;17.70;99.90;;;;;;5031812;28;20883;-67
2022/08/31 03:12:29;;;;;;;12.00;10.90;;;17.70;99.90;;;;;;5031360;28;20473;-66
2022/08/31 03:14:56;;;;;;;12.07;11.07;;;17.70;99.90;;;;;;5031702;28;20447;-67
2022/08/31 03:17:22;;;;;;;13.47;11.40;;;17.80;99.90;;;;;;5031411;28;20481;-66
2022/08/31 03:19:49;;;;;;;12.10;11.00;;;17.80;99.90;;;;;;5031494;28;20445;-67
2022/08/31 03:22:16;;;;;;;11.77;10.67;;;17.70;99.90;;;;;;5030828;28;20467;-66
2022/08/31 03:24:44;;;;;;;11.13;10.03;;;17.70;99.90;;;;;;5031377;28;20476;-67
2022/08/31 03:27:11;;;;;;;10.93;9.83;;;17.70;99.90;;;;;;5031403;28;20464;-67
2022/08/31 03:29:37;;;;;;;11.60;10.60;;;17.70;99.90;;;;;;5031240;28;20453;-66
2022/08/31 03:32:04;;;;;;;13.30;11.83;;;17.60;99.90;;;;;;5030757;28;20449;-66
2022/08/31 03:34:31;;;;;;;12.27;11.00;;;17.70;99.90;;;;;;5031168;28;20482;-67
2022/08/31 03:36:58;;;;;;;13.10;11.00;;;17.70;99.90;;;;;;5030910;28;20453;-66
2022/08/31 03:39:24;;;;;;;12.13;11.07;;;17.70;99.90;;;;;;5031143;28;20452;-66
2022/08/31 03:41:53;;;;;;;10.83;9.70;;;17.70;99.90;;;;;;5031135;28;20444;-66
2022/08/31 03:44:22;;;;;;;13.07;11.77;;;17.70;99.90;;;;;;5031122;28;20830;-67
2022/08/31 03:46:49;;;;;;;10.90;9.90;;;17.70;99.90;;;;;;5028493;28;20461;-67
2022/08/31 03:49:17;;;;;;;12.70;11.40;;;17.60;99.90;;;;;;5030641;28;20441;-68
2022/08/31 03:51:44;;;;;;;11.10;9.97;;;17.60;99.90;;;;;;5030619;28;20459;-66
2022/08/31 03:54:11;;;;;;;9.90;9.00;;;17.60;99.90;;;;;;5030744;28;20483;-66
2022/08/31 03:56:38;;;;;;;11.30;10.13;;;17.60;99.90;;;;;;5030826;28;20452;-68
2022/08/31 03:59:07;;;;;;;10.20;9.30;;;17.60;99.90;;;;;;5030765;28;20495;-66
2022/08/31 04:01:35;;;;;;;11.30;10.10;;;17.60;99.90;;;;;;5030719;28;20457;-67
2022/08/31 04:04:03;;;;;;;11.43;10.37;;;17.60;99.90;;;;;;5030229;28;20816;-68
2022/08/31 04:06:30;;;;;;;10.30;9.20;;;17.50;99.90;;;;;;5030128;28;20457;-66
2022/08/31 04:08:57;;;;;;;12.83;10.03;;;17.50;99.90;;;;;;5030221;28;20452;-67
2022/08/31 04:11:25;;;;;;;10.37;9.47;;;17.40;99.90;;;;;;5030515;28;20464;-67
2022/08/31 04:13:53;;;;;;;11.93;10.10;;;17.50;99.90;;;;;;5029951;28;20468;-66
2022/08/31 04:16:23;;;;;;;10.67;9.30;;;17.50;99.90;;;;;;5029905;28;20461;-67
2022/08/31 04:18:49;;;;;;;10.70;9.80;;;17.50;99.90;;;;;;5030358;28;20484;-66
2022/08/31 04:21:19;;;;;;;11.43;10.40;;;17.50;99.90;;;;;;5030431;28;20567;-68
2022/08/31 04:23:47;;;;;;;11.80;10.60;;;17.50;99.90;;;;;;5029879;28;21255;-66
2022/08/31 04:26:19;;;;;;;10.90;9.60;;;17.60;99.90;;;;;;5030404;28;20460;-66
2022/08/31 04:28:46;;;;;;;12.00;10.63;;;17.60;99.90;;;;;;5030014;28;20445;-67
2022/08/31 04:31:13;;;;;;;11.73;10.63;;;17.60;99.90;;;;;;5030113;28;21010;-66
2022/08/31 04:33:43;;;;;;;11.70;10.67;;;17.60;99.90;;;;;;5029709;28;20465;-66
2022/08/31 04:36:11;;;;;;;11.63;10.60;;;17.60;99.90;;;;;;5030107;28;20456;-67
2022/08/31 04:38:39;;;;;;;11.60;10.50;;;17.60;99.90;;;;;;5029795;28;20491;-66
2022/08/31 04:41:08;;;;;;;11.90;10.70;;;17.60;99.90;;;;;;5029850;28;20534;-67
2022/08/31 04:43:35;;;;;;;11.33;10.43;;;17.60;99.90;;;;;;5029487;28;21029;-67
2022/08/31 04:46:03;;;;;;;11.80;10.80;;;17.70;99.90;;;;;;5030006;28;20452;-66
2022/08/31 04:48:30;;;;;;;12.80;11.60;;;17.70;99.90;;;;;;5030085;28;20453;-66
2022/08/31 04:51:02;;;;;;;13.93;10.73;;;17.70;99.90;;;;;;5029819;28;20452;-67
2022/08/31 04:53:28;;;;;;;12.67;11.33;;;17.70;99.90;;;;;;5029398;28;20519;-65
2022/08/31 04:55:55;;;;;;;13.03;11.73;;;17.70;99.90;;;;;;5029710;28;20453;-67
2022/08/31 04:58:23;;;;;;;11.57;10.47;;;17.70;99.90;;;;;;5029746;28;20839;-65
2022/08/31 05:00:51;;;;;;;11.10;10.17;;;17.60;99.90;;;;;;5029735;28;20449;-67
2022/08/31 05:03:19;;;;;;;11.97;10.77;;;17.60;99.90;;;;;;5029443;28;21139;-67
2022/08/31 05:05:48;;;;;;;12.20;11.00;;;17.70;99.90;;;;;;5029635;28;20444;-67
2022/08/31 05:08:16;;;;;;;12.97;11.77;;;17.70;99.90;;;;;;5029692;28;20440;-66
2022/08/31 05:10:43;;;;;;;13.37;11.23;;;17.70;99.90;;;;;;5029436;28;20451;-66
2022/08/31 05:13:10;;;;;;;12.83;11.63;;;17.70;99.90;;;;;;5029454;28;20479;-65
2022/08/31 05:15:40;;;;;;;12.70;11.50;;;17.70;99.90;;;;;;5029512;28;20449;-66
2022/08/31 05:18:07;;;;;;;13.30;12.10;;;17.70;99.90;;;;;;5032500;28;20476;-67
2022/08/31 05:20:34;;;;;;;14.80;12.73;;;17.70;99.90;;;;;;5033669;28;20452;-67
2022/08/31 05:23:01;;;;;;;15.17;12.03;;;17.70;99.90;;;;;;5033179;28;20475;-67
2022/08/31 05:25:29;;;;;;;12.33;11.10;;;17.70;99.90;;;;;;5033963;28;20449;-66
2022/08/31 05:27:56;;;;;;;13.40;12.00;;;17.70;99.90;;;;;;5033574;28;20531;-66
2022/08/31 05:30:23;;;;;;;12.17;10.93;;;17.70;99.90;;;;;;5033756;28;20452;-67
2022/08/31 05:32:50;;;;;;;12.83;11.53;;;17.70;99.90;;;;;;5033270;28;20477;-66
2022/08/31 05:35:17;;;;;;;13.53;12.23;;;17.70;99.90;;;;;;5033711;28;20456;-66
2022/08/31 05:37:44;;;;;;;12.20;11.10;;;17.80;99.90;;;;;;5033409;28;20856;-67
2022/08/31 05:40:11;;;;;;;13.20;12.00;;;17.70;99.90;;;;;;5033524;28;21124;-67
2022/08/31 05:42:40;;;;;;;14.43;12.50;;;17.70;99.90;;;;;;5033122;28;20464;-66
2022/08/31 05:45:07;;;;;;;13.53;12.10;;;17.70;99.90;;;;;;5033404;28;20451;-67
2022/08/31 05:47:34;;;;;;;13.27;12.00;;;17.80;99.90;;;;;;5033168;28;20464;-67
2022/08/31 05:50:01;;;;;;;14.60;12.93;;;17.80;99.90;;;;;;5033040;28;20452;-67
2022/08/31 05:52:28;;;;;;;12.63;11.33;;;17.80;99.90;;;;;;5032907;28;20472;-67
2022/08/31 05:54:55;;;;;;;12.73;11.43;;;17.80;99.90;;;;;;5032959;28;20460;-66
2022/08/31 05:57:22;;;;;;;13.40;12.10;;;17.80;99.90;;;;;;5033142;28;20452;-65
2022/08/31 05:59:50;;;;;;;12.93;11.67;;;17.90;99.90;;;;;;5032892;28;20946;-66
2022/08/31 06:02:17;;;;;;;14.10;11.47;;;17.90;99.90;;;;;;5032549;28;20451;-66
2022/08/31 06:04:43;;;;;;;12.00;11.00;;;18.10;99.90;;;;;;5032666;28;20448;-66
2022/08/31 06:07:10;;;;;;;12.57;11.23;;;18.20;99.90;;;;;;5033077;28;20448;-67
2022/08/31 06:09:38;;;;;;;12.43;11.07;;;18.20;99.90;;;;;;5032876;28;20440;-66
2022/08/31 06:12:05;;;;;;;12.97;11.67;;;18.20;99.90;;;;;;5032532;28;20448;-67
2022/08/31 06:14:32;;;;;;;13.27;12.00;;;18.20;99.90;;;;;;5032630;28;20449;-67
2022/08/31 06:17:00;;;;;;;12.13;10.93;;;18.20;99.90;;;;;;5032750;28;20491;-66
2022/08/31 06:19:27;;;;;;;12.67;11.37;;;18.20;99.90;;;;;;5032311;28;20490;-67
2022/08/31 06:21:56;;;;;;;15.77;11.60;;;18.30;99.90;;;;;;5032416;28;20448;-67
2022/08/31 06:24:22;;;;;;;11.90;10.70;;;18.30;99.90;;;;;;5032332;28;21090;-66
2022/08/31 06:26:51;;;;;;;11.43;10.43;;;18.30;99.90;;;;;;5032402;28;20448;-67
2022/08/31 06:29:19;;;;;;;10.57;9.57;;;18.30;99.90;;;;;;5031981;28;20449;-67
2022/08/31 06:31:46;;;;;;;11.43;10.43;;;18.40;99.90;;;;;;5031960;28;20444;-68
2022/08/31 06:34:16;;;;;;;10.63;9.73;;;18.40;99.90;;;;;;5032469;28;20558;-67
2022/08/31 06:36:43;;;;;;;11.30;10.20;;;18.50;99.90;;;;;;5032372;28;20449;-66
2022/08/31 06:39:11;;;;;;;11.73;10.63;;;18.50;99.90;;;;;;5032289;28;20485;-66
2022/08/31 06:41:39;;;;;;;13.00;10.93;;;18.60;99.90;;;;;;5032223;28;20453;-66
2022/08/31 06:44:09;;;;;;;11.00;9.93;;;18.60;99.90;;;;;;5031899;28;20464;-67
2022/08/31 06:46:38;;;;;;;11.43;9.57;;;18.70;99.90;;;;;;5032321;28;20449;-66
2022/08/31 06:49:05;;;;;;;10.20;9.20;;;18.50;99.90;;;;;;5032321;28;20866;-67
2022/08/31 06:51:36;;;;;;;9.50;8.67;;;18.40;99.90;;;;;;5031913;28;20441;-67
2022/08/31 06:54:04;;;;;;;11.50;9.20;;;18.40;99.90;;;;;;5031662;28;20530;-67
2022/08/31 06:56:31;;;;;;;9.20;8.33;;;18.40;99.90;;;;;;5031750;28;20457;-67
2022/08/31 06:58:59;;;;;;;10.70;8.17;;;18.40;99.90;;;;;;5031688;28;20477;-67
2022/08/31 07:01:29;;;;;;;9.37;8.57;;;18.40;99.90;;;;;;5031710;28;20441;-67
2022/08/31 07:03:57;;;;;;;9.13;8.23;;;18.40;99.90;;;;;;5031640;28;20495;-67
2022/08/31 07:06:26;;;;;;;8.90;8.00;;;18.50;99.90;;;;;;5031727;28;20453;-66
2022/08/31 07:09:02;;;;;;;9.00;8.07;;;18.60;99.90;;;;;;5031764;28;21033;-67
2022/08/31 07:11:32;;;;;;;13.17;8.97;;;18.60;99.90;;;;;;5031735;28;20448;-67
2022/08/31 07:14:00;;;;;;;7.70;7.00;;;18.60;99.90;;;;;;5031592;28;20631;-67
2022/08/31 07:16:28;;;;;;;9.13;8.00;;;18.70;99.90;;;;;;5031831;28;20472;-66
2022/08/31 07:18:57;;;;;;;10.30;8.40;;;18.70;99.90;;;;;;5031598;28;20477;-67
2022/08/31 07:21:26;;;;;;;7.87;7.03;;;18.80;99.90;;;;;;5031689;28;20454;-66
2022/08/31 07:23:56;;;;;;;8.40;7.57;;;18.90;99.90;;;;;;5031170;28;21210;-67
2022/08/31 07:26:26;;;;;;;8.53;7.73;;;18.90;99.90;;;;;;5032052;28;20452;-67
2022/08/31 07:28:54;;;;;;;8.53;6.50;;;19.00;99.90;;;;;;5031580;28;20445;-67
2022/08/31 07:31:23;;;;;;;10.47;7.70;;;19.10;99.90;;;;;;5031589;28;20822;-67
2022/08/31 07:33:50;;;;;;;8.07;7.27;;;19.10;99.90;;;;;;5031068;28;20561;-68
2022/08/31 07:36:17;;;;;;;7.37;6.77;;;19.30;99.90;;;;;;5031342;28;20440;-68
2022/08/31 07:44:30;;;;;;;7.60;6.83;;;19.50;99.90;;;;;;4969699;28;20479;-68
2022/08/31 07:46:57;;;;;;;7.70;6.70;;;19.50;99.90;;;;;;5004533;28;20452;-68
2022/08/31 07:49:25;;;;;;;8.43;6.73;;;19.60;99.90;;;;;;5031116;28;20444;-67
2022/08/31 07:51:52;;;;;;;8.10;7.40;;;19.80;99.90;;;;;;5030822;28;20471;-68
2022/08/31 07:54:21;;;;;;;8.60;7.40;;;20.00;99.90;;;;;;5030617;28;20476;-68
2022/08/31 07:56:49;;;;;;;7.67;6.87;;;20.10;99.90;;;;;;5030642;28;20475;-68
2022/08/31 07:59:17;;;;;;;6.73;6.13;;;20.20;99.90;;;;;;5030361;28;20484;-68
2022/08/31 08:01:44;;;;;;;8.63;7.75;;;20.30;99.90;;;;;;5029662;28;20919;-67
2022/08/31 08:04:20;;;;;;;7.40;6.80;;;20.40;99.90;;;;;;5029159;28;20704;-67
2022/08/31 08:06:47;;;;;;;6.97;6.37;;;20.40;99.90;;;;;;5026129;28;20456;-68
2022/08/31 08:09:14;;;;;;;8.37;7.50;;;20.30;99.90;;;;;;5029621;28;20463;-68
2022/08/31 08:11:45;;;;;;;8.20;7.33;;;20.10;99.90;;;;;;5024930;28;20437;-69
2022/08/31 08:14:13;;;;;;;7.33;6.73;;;19.90;99.90;;;;;;5029192;28;20472;-67
2022/08/31 08:16:40;;;;;;;7.90;7.10;;;19.60;99.90;;;;;;5030396;28;20457;-67
2022/08/31 08:19:07;;;;;;;7.63;6.93;;;19.40;99.90;;;;;;5030254;28;20477;-67
2022/08/31 08:21:33;;;;;;;14.87;8.43;;;19.10;99.90;;;;;;5030162;28;20456;-67
2022/08/31 08:24:00;;;;;;;8.30;6.73;;;19.00;99.90;;;;;;5029998;28;20480;-67
2022/08/31 08:26:27;;;;;;;7.17;6.50;;;18.90;99.90;;;;;;5030005;28;20480;-66
2022/08/31 08:28:55;;;;;;;9.57;7.60;;;18.90;99.90;;;;;;5030426;28;20465;-67
2022/08/31 08:31:27;;;;;;;8.07;7.37;;;18.80;99.90;;;;;;5029872;28;20444;-66
2022/08/31 08:33:54;;;;;;;7.77;7.07;;;18.80;99.90;;;;;;5028635;28;20480;-67
2022/08/31 08:36:21;;;;;;;7.60;6.60;;;18.80;99.90;;;;;;5026336;28;20453;-67
2022/08/31 08:38:50;;;;;;;9.40;7.23;;;19.00;99.90;;;;;;5026894;28;20990;-66
2022/08/31 08:41:20;;;;;;;13.93;8.07;;;19.10;99.90;;;;;;5023976;28;20469;-68
2022/08/31 08:43:49;;;;;;;10.10;8.03;;;19.20;99.90;;;;;;5027954;28;20471;-67
2022/08/31 08:46:18;;;;;;;8.33;7.47;;;19.40;99.90;;;;;;5026415;28;20441;-65
2022/08/31 08:48:48;;;;;;;10.70;7.27;;;19.40;99.90;;;;;;5026437;28;20481;-66
2022/08/31 08:51:17;;;;;;;9.23;8.40;;;19.40;99.90;;;;;;5024678;28;20464;-66
2022/08/31 08:53:48;;;;;;;11.30;7.30;;;19.40;99.90;;;;;;5019177;28;20507;-66
2022/08/31 08:56:15;;;;;;;9.23;7.20;;;19.50;99.90;;;;;;5027658;28;20475;-67
2022/08/31 08:58:43;;;;;;;9.60;7.23;;;19.50;99.90;;;;;;5021281;28;20481;-65
2022/08/31 09:01:12;;;;;;;8.50;7.60;;;19.60;99.90;;;;;;5021976;28;20453;-67
2022/08/31 09:03:54;;;;;;;8.33;7.53;;;19.60;99.90;;;;;;5022339;28;21061;-64
2022/08/31 09:06:32;;;;;;;9.10;7.20;;;19.60;99.90;;;;;;5022727;28;20446;-66
2022/08/31 09:09:20;;;;;;;9.97;8.97;;;19.80;99.90;;;;;;5027446;28;20951;-66
2022/08/31 09:12:03;;;;;;;10.13;7.50;;;20.20;99.90;;;;;;5025017;28;20464;-65
2022/08/31 09:14:46;;;;;;;8.83;7.27;;;20.30;99.90;;;;;;5028011;28;20837;-66
2022/08/31 09:17:23;;;;;;;7.00;6.40;;;20.60;99.90;;;;;;5029912;28;20910;-65
2022/08/31 09:20:03;;;;;;;9.93;7.10;;;20.80;99.90;;;;;;5029580;28;20512;-66
2022/08/31 09:22:31;;;;;;;8.10;7.30;;;21.00;99.90;;;;;;5027980;28;20476;-66
2022/08/31 09:24:59;;;;;;;7.80;7.10;;;21.10;99.90;;;;;;5029999;28;20510;-67
2022/08/31 09:27:45;;;;;;;8.23;7.50;;;21.20;99.90;;;;;;5029653;28;20464;-66
2022/08/31 09:30:16;;;;;;;7.00;6.37;;;21.30;99.90;;;;;;5029724;28;20956;-66
2022/08/31 09:32:54;;;;;;;10.17;6.87;;;21.40;99.90;;;;;;5029391;28;20473;-65
2022/08/31 09:35:40;;;;;;;8.37;7.53;;;21.60;99.90;;;;;;5029615;28;20506;-66
2022/08/31 09:38:09;;;;;;;10.00;6.80;;;21.60;99.90;;;;;;5029498;28;20939;-65
2022/08/31 09:40:40;;;;;;;8.60;7.80;;;21.80;99.90;;;;;;5029362;28;20858;-66
2022/08/31 09:43:09;;;;;;;7.57;6.83;;;21.90;99.90;;;;;;5029227;28;20476;-65
2022/08/31 09:45:40;;;;;;;9.43;7.77;;;22.10;99.90;;;;;;5029273;28;20448;-65
2022/08/31 09:48:09;;;;;;;9.00;6.50;;;22.10;99.90;;;;;;5029253;28;20459;-66
2022/08/31 09:50:43;;;;;;;8.50;6.70;;;22.20;99.90;;;;;;5029733;28;20449;-66
2022/08/31 09:56:14;;;;;;;10.90;7.40;;;21.80;99.90;;;;;;5029309;28;20555;-66
2022/08/31 09:58:47;;;;;;;8.40;7.60;;;21.40;99.90;;;;;;5029215;28;20449;-66
2022/08/31 10:01:30;;;;;;;8.40;6.53;;;21.50;99.90;;;;;;5029186;28;20515;-65
2022/08/31 10:04:18;;;;;;;8.50;7.70;;;21.40;99.90;;;;;;5031554;28;20516;-66
2022/08/31 10:06:51;;;;;;;8.50;7.60;;;21.40;99.90;;;;;;5033183;28;20455;-65
2022/08/31 10:09:26;;;;;;;8.70;7.87;;;21.10;99.90;;;;;;5032973;28;20452;-67
2022/08/31 10:11:56;;;;;;;7.77;7.00;;;21.10;99.90;;;;;;5032610;28;20521;-67
2022/08/31 10:14:33;;;;;;;10.43;7.70;;;21.20;99.90;;;;;;5032885;28;20519;-67
2022/08/31 10:17:06;;;;;;;8.43;7.50;;;21.20;99.90;;;;;;5032908;28;20458;-66
2022/08/31 10:19:48;;;;;;;10.70;7.23;;;21.20;99.90;;;;;;5032560;28;20482;-66
2022/08/31 10:22:27;;;;;;;9.30;8.23;;;21.20;99.90;;;;;;5032264;28;20629;-67
2022/08/31 10:25:17;;;;;;;9.00;7.00;;;20.90;99.90;;;;;;5032542;28;20459;-66
2022/08/31 10:27:47;;;;;;;10.33;7.60;;;20.80;99.90;;;;;;5032616;28;21209;-66
2022/08/31 10:30:26;;;;;;;10.77;8.40;;;20.90;99.90;;;;;;5032556;28;20449;-67
2022/08/31 10:32:59;;;;;;;8.60;7.30;;;21.00;99.90;;;;;;5032387;28;20483;-66
2022/08/31 10:35:36;;;;;;;11.17;7.70;;;21.00;99.90;;;;;;5032606;28;20821;-66
2022/08/31 10:38:19;;;;;;;8.50;7.60;;;21.20;99.90;;;;;;5032919;28;20926;-66
2022/08/31 10:40:51;;;;;;;7.47;6.70;;;21.20;99.90;;;;;;5032097;28;20563;-67
2022/08/31 10:43:22;;;;;;;7.77;6.57;;;21.40;99.90;;;;;;5032081;28;20481;-66
2022/08/31 10:45:52;;;;;;;10.67;8.20;;;21.40;99.90;;;;;;5032179;28;20928;-66
2022/08/31 10:48:21;;;;;;;7.80;7.03;;;21.40;99.90;;;;;;5032354;28;20468;-66
2022/08/31 10:50:56;;;;;;;11.83;7.40;;;21.40;99.90;;;;;;5032208;28;20449;-66
2022/08/31 10:53:33;;;;;;;11.10;7.50;;;21.30;99.90;;;;;;5031711;28;20475;-66
2022/08/31 10:56:13;;;;;;;8.07;7.27;;;21.40;99.90;;;;;;5032749;28;20452;-64
2022/08/31 10:58:52;;;;;;;9.83;6.83;;;21.40;99.90;;;;;;5032220;28;20452;-66
2022/08/31 11:01:26;;;;;;;8.20;7.27;;;21.40;99.90;;;;;;5031795;28;20483;-66
2022/08/31 11:04:19;;;;;;;11.23;7.30;;;21.40;99.90;;;;;;5028955;28;20535;-67
2022/08/31 11:06:54;;;;;;;8.13;7.27;;;21.30;99.90;;;;;;5012091;28;20454;-67
2022/08/31 11:09:26;;;;;;;8.50;7.37;;;21.20;99.90;;;;;;5012129;28;20449;-66
2022/08/31 11:12:03;;;;;;;8.03;7.33;;;21.20;99.90;;;;;;5012154;28;20441;-64
2022/08/31 11:14:48;;;;;;;8.20;7.40;;;21.10;99.90;;;;;;5011248;28;20449;-65
2022/08/31 11:17:30;;;;;;;8.07;7.27;;;21.00;99.90;;;;;;5012051;28;20445;-66
2022/08/31 11:20:15;;;;;;;8.57;7.63;;;20.90;99.90;;;;;;5012031;28;20868;-66
2022/08/31 11:23:10;;;;;;;8.40;7.70;;;20.90;99.90;;;;;;5011295;28;21056;-66
2022/08/31 11:26:09;;;;;;;8.40;7.60;;;20.80;99.90;;;;;;5011832;28;20450;-66
2022/08/31 11:28:38;;;;;;;8.80;7.80;;;20.70;99.90;;;;;;5011451;28;20450;-66
2022/08/31 11:31:13;;;;;;;12.33;7.40;;;20.50;99.90;;;;;;5011330;28;20791;-66
2022/08/31 11:33:49;;;;;;;9.47;8.27;;;20.40;99.90;;;;;;5021128;28;20503;-66
2022/08/31 11:36:48;;;;;;;9.80;8.90;;;20.40;99.90;;;;;;5025757;28;20456;-66
2022/08/31 11:39:25;;;;;;;14.83;9.00;;;20.50;99.90;;;;;;5021026;28;20547;-66
2022/08/31 11:41:53;;;;;;;14.23;10.30;;;20.50;99.90;;;;;;5027532;28;20483;-65
2022/08/31 11:44:52;;;;;;;10.60;9.20;;;20.40;99.90;;;;;;5023463;28;20480;-66
2022/08/31 11:47:34;;;;;;;9.20;8.40;;;20.40;99.90;;;;;;5029044;28;20445;-67
2022/08/31 11:50:04;;;;;;;10.27;9.17;;;20.40;99.90;;;;;;5027127;28;20823;-66
2022/08/31 11:52:41;;;;;;;9.70;8.80;;;20.20;99.90;;;;;;5024332;28;20468;-66
2022/08/31 11:55:22;;;;;;;10.13;9.23;;;20.00;99.90;;;;;;5031168;28;20459;-66
2022/08/31 11:58:24;;;;;;;10.80;9.73;;;19.80;99.90;;;;;;5030807;28;20441;-66
2022/08/31 12:00:58;;;;;;;11.60;9.70;;;19.70;99.90;;;;;;5031564;28;20483;-66
2022/08/31 12:03:35;;;;;;;11.50;10.47;;;19.60;99.90;;;;;;5027447;28;20538;-66
2022/08/31 12:06:03;;;;;;;9.50;8.80;;;19.70;99.90;;;;;;5015721;28;20449;-66
2022/08/31 12:08:48;;;;;;;11.20;10.10;;;19.80;99.90;;;;;;5024431;28;20455;-65
2022/08/31 12:11:22;;;;;;;11.07;10.17;;;19.90;99.90;;;;;;5022608;28;20460;-66
2022/08/31 12:13:54;;;;;;;10.87;9.93;;;20.10;99.90;;;;;;5010360;28;20510;-67
2022/08/31 12:16:36;;;;;;;11.50;10.27;;;20.40;99.90;;;;;;5019202;28;20962;-66
2022/08/31 12:25:21;;;;;;;10.67;9.50;;;21.70;99.90;;;;;;5026262;28;20490;-66
2022/08/31 12:28:01;;;;;;;10.17;8.73;;;22.10;99.90;;;;;;5024450;28;20448;-68
2022/08/31 12:30:29;;;;;;;11.10;8.90;;;22.30;99.90;;;;;;5023125;28;20932;-68
2022/08/31 12:33:01;;;;;;;10.33;9.20;;;22.50;99.90;;;;;;5026777;28;20977;-68
2022/08/31 12:35:30;;;;;;;10.70;9.60;;;22.60;99.90;;;;;;5022975;28;20449;-65
2022/08/31 12:37:59;;;;;;;12.43;8.90;;;22.80;99.90;;;;;;5027520;28;20457;-68
2022/08/31 12:40:29;;;;;;;12.70;8.47;;;22.80;99.90;;;;;;5024959;28;20485;-66
2022/08/31 12:43:04;;;;;;;8.80;8.00;;;23.00;99.90;;;;;;5026648;28;20476;-68
2022/08/31 12:45:59;;;;;;;10.93;8.20;;;23.30;99.90;;;;;;5027153;28;20432;-67
2022/08/31 12:48:38;;;;;;;8.50;7.80;;;23.50;99.90;;;;;;5024323;28;20441;-67
2022/08/31 12:51:17;;;;;;;9.30;8.40;;;23.50;99.90;;;;;;5026390;28;20441;-67
2022/08/31 12:54:05;;;;;;;10.03;8.93;;;23.80;99.90;;;;;;5011291;28;20489;-64
2022/08/31 12:56:40;;;;;;;8.80;8.00;;;24.50;99.90;;;;;;5028291;28;20429;-65
2022/08/31 12:59:19;;;;;;;11.73;7.27;;;25.60;99.90;;;;;;5022005;28;20445;-65
2022/08/31 13:01:48;;;;;;;7.90;7.20;;;26.90;99.90;;;;;;5023809;28;20488;-64
2022/08/31 13:04:16;;;;;;;8.00;7.00;;;28.00;99.90;;;;;;5024895;28;20576;-68
2022/08/31 13:06:46;;;;;;;9.13;8.17;;;28.90;97.20;;;;;;5022983;28;20468;-67
2022/08/31 13:09:28;;;;;;;7.00;6.43;;;28.50;95.80;;;;;;5022035;28;20499;-66
2022/08/31 13:11:58;;;;;;;8.00;7.20;;;29.20;96.80;;;;;;5025976;28;20507;-65